sensor_id;sensor_type;location;lat;lon;timestamp;pressure;altitude;pressure_sealevel;temperature;humidity
58761;BME280;44529;47.464;19.014;2022-10-29T00:02:30;101459.97;;;12.28;100.00
58761;BME280;44529;47.464;19.014;2022-10-29T00:05:33;101470.00;;;12.27;100.00
58761;BME280;44529;47.464;19.014;2022-10-29T00:08:37;101468.91;;;12.28;100.00
58761;BME280;44529;47.464;19.014;2022-10-29T00:11:40;101470.13;;;12.36;100.00
58761;BME280;44529;47.464;19.014;2022-10-29T00:14:42;101468.03;;;12.33;100.00
58761;BME280;44529;47.464;19.014;2022-10-29T00:17:44;101466.94;;;12.34;100.00
58761;BME280;44529;47.464;19.014;2022-10-29T00:20:46;101469.34;;;12.35;100.00
58761;BME280;44529;47.464;19.014;2022-10-29T00:23:50;101475.34;;;12.32;100.00
58761;BME280;44529;47.464;19.014;2022-10-29T00:26:53;101476.72;;;12.30;100.00
58761;BME280;44529;47.464;19.014;2022-10-29T00:29:55;101480.28;;;12.30;100.00
58761;BME280;44529;47.464;19.014;2022-10-29T00:32:57;101478.38;;;12.31;100.00
58761;BME280;44529;47.464;19.014;2022-10-29T00:36:02;101480.03;;;12.27;100.00
58761;BME280;44529;47.464;19.014;2022-10-29T00:39:05;101480.91;;;12.22;100.00
58761;BME280;44529;47.464;19.014;2022-10-29T00:42:14;101474.69;;;12.22;100.00
58761;BME280;44529;47.464;19.014;2022-10-29T00:45:19;101474.13;;;12.25;100.00
58761;BME280;44529;47.464;19.014;2022-10-29T00:48:23;101472.50;;;12.24;100.00
58761;BME280;44529;47.464;19.014;2022-10-29T00:51:27;101473.81;;;12.26;100.00
58761;BME280;44529;47.464;19.014;2022-10-29T00:54:33;101477.03;;;12.28;100.00
58761;BME280;44529;47.464;19.014;2022-10-29T00:57:39;101474.69;;;12.22;100.00
58761;BME280;44529;47.464;19.014;2022-10-29T01:00:42;101478.50;;;12.20;100.00
58761;BME280;44529;47.464;19.014;2022-10-29T01:03:45;101467.66;;;12.20;100.00
58761;BME280;44529;47.464;19.014;2022-10-29T01:06:48;101467.41;;;12.17;100.00
58761;BME280;44529;47.464;19.014;2022-10-29T01:09:50;101463.34;;;12.19;100.00
58761;BME280;44529;47.464;19.014;2022-10-29T01:23:09;101441.78;;;12.28;100.00
58761;BME280;44529;47.464;19.014;2022-10-29T01:33:06;101419.13;;;12.19;100.00
58761;BME280;44529;47.464;19.014;2022-10-29T01:37:12;101421.84;;;12.19;100.00
58761;BME280;44529;47.464;19.014;2022-10-29T01:39:57;101416.94;;;12.21;100.00
58761;BME280;44529;47.464;19.014;2022-10-29T01:43:13;101419.34;;;12.23;100.00
58761;BME280;44529;47.464;19.014;2022-10-29T01:46:22;101408.78;;;12.21;100.00
58761;BME280;44529;47.464;19.014;2022-10-29T01:49:34;101406.37;;;12.19;100.00
58761;BME280;44529;47.464;19.014;2022-10-29T01:52:39;101403.16;;;12.17;100.00
58761;BME280;44529;47.464;19.014;2022-10-29T01:55:42;101415.91;;;12.17;100.00
58761;BME280;44529;47.464;19.014;2022-10-29T01:58:48;101405.34;;;12.15;100.00
58761;BME280;44529;47.464;19.014;2022-10-29T02:05:31;101394.50;;;12.15;100.00
58761;BME280;44529;47.464;19.014;2022-10-29T02:15:53;101398.81;;;12.16;100.00
58761;BME280;44529;47.464;19.014;2022-10-29T02:18:30;101404.72;;;12.05;100.00
58761;BME280;44529;47.464;19.014;2022-10-29T02:21:32;101399.84;;;12.02;100.00
58761;BME280;44529;47.464;19.014;2022-10-29T02:24:34;101398.00;;;11.97;100.00
58761;BME280;44529;47.464;19.014;2022-10-29T02:27:36;101404.59;;;11.91;100.00
58761;BME280;44529;47.464;19.014;2022-10-29T02:30:38;101403.16;;;11.99;100.00
58761;BME280;44529;47.464;19.014;2022-10-29T02:33:41;101398.56;;;11.99;100.00
58761;BME280;44529;47.464;19.014;2022-10-29T02:36:43;101402.56;;;12.02;100.00
58761;BME280;44529;47.464;19.014;2022-10-29T02:39:45;101400.47;;;11.99;100.00
58761;BME280;44529;47.464;19.014;2022-10-29T02:42:48;101408.28;;;12.00;100.00
58761;BME280;44529;47.464;19.014;2022-10-29T02:46:08;101403.44;;;11.97;100.00
58761;BME280;44529;47.464;19.014;2022-10-29T02:49:11;101399.84;;;12.02;100.00
58761;BME280;44529;47.464;19.014;2022-10-29T02:52:13;101395.25;;;12.02;100.00
58761;BME280;44529;47.464;19.014;2022-10-29T02:55:15;101399.06;;;12.01;100.00
58761;BME280;44529;47.464;19.014;2022-10-29T02:58:17;101390.31;;;12.04;100.00
58761;BME280;44529;47.464;19.014;2022-10-29T03:01:20;101392.47;;;12.07;100.00
58761;BME280;44529;47.464;19.014;2022-10-29T03:04:22;101384.62;;;12.06;100.00
58761;BME280;44529;47.464;19.014;2022-10-29T03:07:24;101390.31;;;12.04;100.00
58761;BME280;44529;47.464;19.014;2022-10-29T03:10:26;101388.22;;;12.01;100.00
58761;BME280;44529;47.464;19.014;2022-10-29T03:13:29;101396.94;;;11.98;100.00
58761;BME280;44529;47.464;19.014;2022-10-29T03:16:31;101397.94;;;12.02;100.00
58761;BME280;44529;47.464;19.014;2022-10-29T03:19:33;101388.16;;;12.06;100.00
58761;BME280;44529;47.464;19.014;2022-10-29T03:22:35;101391.44;;;12.03;100.00
58761;BME280;44529;47.464;19.014;2022-10-29T03:25:39;101392.03;;;12.00;100.00
58761;BME280;44529;47.464;19.014;2022-10-29T03:28:41;101386.97;;;11.93;100.00
58761;BME280;44529;47.464;19.014;2022-10-29T03:31:43;101389.37;;;11.95;100.00
58761;BME280;44529;47.464;19.014;2022-10-29T03:34:45;101381.31;;;11.90;100.00
58761;BME280;44529;47.464;19.014;2022-10-29T03:37:51;101378.53;;;11.95;100.00
58761;BME280;44529;47.464;19.014;2022-10-29T03:40:53;101386.97;;;11.93;100.00
58761;BME280;44529;47.464;19.014;2022-10-29T03:43:56;101373.91;;;11.96;100.00
58761;BME280;44529;47.464;19.014;2022-10-29T03:46:58;101381.84;;;11.92;100.00
58761;BME280;44529;47.464;19.014;2022-10-29T03:50:01;101389.97;;;11.92;100.00
58761;BME280;44529;47.464;19.014;2022-10-29T03:53:03;101385.13;;;11.89;100.00
58761;BME280;44529;47.464;19.014;2022-10-29T03:56:05;101376.44;;;11.92;100.00
58761;BME280;44529;47.464;19.014;2022-10-29T03:59:08;101383.50;;;11.88;100.00
58761;BME280;44529;47.464;19.014;2022-10-29T04:02:10;101378.91;;;11.88;100.00
58761;BME280;44529;47.464;19.014;2022-10-29T04:05:14;101378.16;;;11.83;100.00
58761;BME280;44529;47.464;19.014;2022-10-29T04:08:16;101385.25;;;11.79;100.00
58761;BME280;44529;47.464;19.014;2022-10-29T04:11:18;101383.06;;;11.81;100.00
58761;BME280;44529;47.464;19.014;2022-10-29T04:14:20;101390.66;;;11.79;100.00
58761;BME280;44529;47.464;19.014;2022-10-29T04:17:23;101383.09;;;11.76;100.00
58761;BME280;44529;47.464;19.014;2022-10-29T04:20:25;101384.41;;;11.78;100.00
58761;BME280;44529;47.464;19.014;2022-10-29T04:23:48;101390.13;;;11.77;100.00
58761;BME280;44529;47.464;19.014;2022-10-29T04:27:10;101381.50;;;11.75;100.00
58761;BME280;44529;47.464;19.014;2022-10-29T04:30:33;101384.69;;;11.82;100.00
58761;BME280;44529;47.464;19.014;2022-10-29T04:33:35;101389.63;;;11.75;100.00
58761;BME280;44529;47.464;19.014;2022-10-29T04:36:37;101387.22;;;11.73;100.00
58761;BME280;44529;47.464;19.014;2022-10-29T04:39:39;101386.41;;;11.73;100.00
58761;BME280;44529;47.464;19.014;2022-10-29T04:42:42;101387.41;;;11.77;100.00
58761;BME280;44529;47.464;19.014;2022-10-29T04:45:50;101395.56;;;11.77;100.00
58761;BME280;44529;47.464;19.014;2022-10-29T04:48:52;101392.84;;;11.77;100.00
58761;BME280;44529;47.464;19.014;2022-10-29T04:51:54;101386.91;;;11.75;100.00
58761;BME280;44529;47.464;19.014;2022-10-29T04:54:57;101382.16;;;11.66;100.00
58761;BME280;44529;47.464;19.014;2022-10-29T04:57:59;101385.06;;;11.70;100.00
58761;BME280;44529;47.464;19.014;2022-10-29T05:01:01;101388.81;;;11.74;100.00
58761;BME280;44529;47.464;19.014;2022-10-29T05:04:06;101394.00;;;11.71;100.00
58761;BME280;44529;47.464;19.014;2022-10-29T05:07:08;101391.09;;;11.67;100.00
58761;BME280;44529;47.464;19.014;2022-10-29T05:10:11;101388.38;;;11.67;100.00
58761;BME280;44529;47.464;19.014;2022-10-29T05:13:14;101382.59;;;11.74;100.00
58761;BME280;44529;47.464;19.014;2022-10-29T05:16:16;101396.94;;;11.74;100.00
58761;BME280;44529;47.464;19.014;2022-10-29T05:19:18;101403.47;;;11.73;100.00
58761;BME280;44529;47.464;19.014;2022-10-29T05:22:20;101389.91;;;11.73;100.00
58761;BME280;44529;47.464;19.014;2022-10-29T05:25:23;101388.81;;;11.74;100.00
58761;BME280;44529;47.464;19.014;2022-10-29T05:28:25;101380.75;;;11.69;100.00
58761;BME280;44529;47.464;19.014;2022-10-29T05:31:27;101381.56;;;11.70;100.00
58761;BME280;44529;47.464;19.014;2022-10-29T05:34:29;101382.16;;;11.66;100.00
58761;BME280;44529;47.464;19.014;2022-10-29T05:37:32;101394.53;;;11.73;100.00
58761;BME280;44529;47.464;19.014;2022-10-29T05:40:34;101386.41;;;11.73;100.00
58761;BME280;44529;47.464;19.014;2022-10-29T05:43:36;101392.41;;;11.70;100.00
58761;BME280;44529;47.464;19.014;2022-10-29T05:46:38;101393.50;;;11.69;100.00
58761;BME280;44529;47.464;19.014;2022-10-29T05:49:41;101388.59;;;11.71;100.00
58761;BME280;44529;47.464;19.014;2022-10-29T05:52:43;101398.09;;;11.68;100.00
58761;BME280;44529;47.464;19.014;2022-10-29T05:55:45;101395.41;;;11.68;100.00
58761;BME280;44529;47.464;19.014;2022-10-29T05:58:48;101392.41;;;11.70;100.00
58761;BME280;44529;47.464;19.014;2022-10-29T06:01:52;101384.50;;;11.73;100.00
58761;BME280;44529;47.464;19.014;2022-10-29T06:04:54;101386.97;;;11.70;100.00
58761;BME280;44529;47.464;19.014;2022-10-29T06:07:58;101388.72;;;11.60;100.00
58761;BME280;44529;47.464;19.014;2022-10-29T06:11:02;101386.59;;;11.57;100.00
58761;BME280;44529;47.464;19.014;2022-10-29T06:14:05;101379.06;;;11.54;100.00
58761;BME280;44529;47.464;19.014;2022-10-29T06:17:07;101381.47;;;11.56;100.00
58761;BME280;44529;47.464;19.014;2022-10-29T06:20:11;101383.88;;;11.57;100.00
58761;BME280;44529;47.464;19.014;2022-10-29T06:23:13;101390.41;;;11.56;100.00
58761;BME280;44529;47.464;19.014;2022-10-29T06:26:16;101398.53;;;11.56;100.00
58761;BME280;44529;47.464;19.014;2022-10-29T06:29:18;101398.00;;;11.54;100.00
58761;BME280;44529;47.464;19.014;2022-10-29T06:32:20;101403.72;;;11.53;100.00
58761;BME280;44529;47.464;19.014;2022-10-29T06:35:23;101401.28;;;11.51;100.00
58761;BME280;44529;47.464;19.014;2022-10-29T06:38:25;101410.50;;;11.50;100.00
58761;BME280;44529;47.464;19.014;2022-10-29T06:41:28;101403.53;;;11.44;100.00
58761;BME280;44529;47.464;19.014;2022-10-29T06:44:30;101418.06;;;11.53;100.00
58761;BME280;44529;47.464;19.014;2022-10-29T06:47:43;101402.69;;;11.49;100.00
58761;BME280;44529;47.464;19.014;2022-10-29T06:50:45;101410.00;;;11.48;100.00
58761;BME280;44529;47.464;19.014;2022-10-29T06:53:47;101419.13;;;11.52;100.00
58761;BME280;44529;47.464;19.014;2022-10-29T06:56:50;101410.50;;;11.50;100.00
58761;BME280;44529;47.464;19.014;2022-10-29T06:59:52;101412.13;;;11.51;100.00
58761;BME280;44529;47.464;19.014;2022-10-29T07:02:54;101400.47;;;11.51;100.00
58761;BME280;44529;47.464;19.014;2022-10-29T07:05:58;101402.09;;;11.52;100.00
58761;BME280;44529;47.464;19.014;2022-10-29T07:09:01;101398.06;;;11.49;100.00
58761;BME280;44529;47.464;19.014;2022-10-29T07:12:03;101400.78;;;11.49;100.00
58761;BME280;44529;47.464;19.014;2022-10-29T07:15:06;101398.88;;;11.50;100.00
58761;BME280;44529;47.464;19.014;2022-10-29T07:18:09;101402.38;;;11.50;100.00
58761;BME280;44529;47.464;19.014;2022-10-29T07:21:12;101405.09;;;11.50;100.00
58761;BME280;44529;47.464;19.014;2022-10-29T07:24:15;101412.91;;;11.52;100.00
58761;BME280;44529;47.464;19.014;2022-10-29T07:27:18;101417.28;;;11.53;100.00
58761;BME280;44529;47.464;19.014;2022-10-29T07:30:21;101424.28;;;11.54;100.00
58761;BME280;44529;47.464;19.014;2022-10-29T07:33:23;101425.31;;;11.58;100.00
58761;BME280;44529;47.464;19.014;2022-10-29T07:36:25;101437.41;;;11.65;100.00
58761;BME280;44529;47.464;19.014;2022-10-29T07:39:27;101444.06;;;11.54;100.00
58761;BME280;44529;47.464;19.014;2022-10-29T07:42:30;101436.69;;;11.60;100.00
58761;BME280;44529;47.464;19.014;2022-10-29T07:45:32;101420.78;;;11.53;100.00
58761;BME280;44529;47.464;19.014;2022-10-29T07:48:35;101420.19;;;11.56;100.00
58761;BME280;44529;47.464;19.014;2022-10-29T07:51:37;101413.63;;;11.62;100.00
58761;BME280;44529;47.464;19.014;2022-10-29T07:54:39;101407.34;;;11.67;100.00
58761;BME280;44529;47.464;19.014;2022-10-29T07:57:41;101419.03;;;11.62;100.00
58761;BME280;44529;47.464;19.014;2022-10-29T08:00:44;101418.34;;;11.52;100.00
58761;BME280;44529;47.464;19.014;2022-10-29T08:03:49;101415.81;;;11.60;100.00
58761;BME280;44529;47.464;19.014;2022-10-29T08:06:51;101407.59;;;11.65;100.00
58761;BME280;44529;47.464;19.014;2022-10-29T08:09:54;101414.22;;;11.59;100.00
58761;BME280;44529;47.464;19.014;2022-10-29T08:12:57;101409.81;;;11.63;100.00
58761;BME280;44529;47.464;19.014;2022-10-29T08:16:01;101409.25;;;11.66;100.00
58761;BME280;44529;47.464;19.014;2022-10-29T08:19:03;101416.47;;;11.71;100.00
58761;BME280;44529;47.464;19.014;2022-10-29T08:22:05;101416.78;;;11.70;100.00
58761;BME280;44529;47.464;19.014;2022-10-29T08:25:08;101417.03;;;11.73;100.00
58761;BME280;44529;47.464;19.014;2022-10-29T08:28:13;101405.38;;;11.73;100.00
58761;BME280;44529;47.464;19.014;2022-10-29T08:31:15;101411.88;;;11.72;100.00
58761;BME280;44529;47.464;19.014;2022-10-29T08:34:18;101417.88;;;11.69;100.00
58761;BME280;44529;47.464;19.014;2022-10-29T08:37:20;101425.94;;;11.74;100.00
58761;BME280;44529;47.464;19.014;2022-10-29T08:40:29;101426.00;;;11.69;100.00
58761;BME280;44529;47.464;19.014;2022-10-29T08:46:56;101428.97;;;11.72;100.00
58761;BME280;44529;47.464;19.014;2022-10-29T08:50:27;101426.25;;;11.72;100.00
58761;BME280;44529;47.464;19.014;2022-10-29T08:53:35;101411.50;;;11.78;100.00
58761;BME280;44529;47.464;19.014;2022-10-29T08:56:45;101400.66;;;11.78;100.00
58761;BME280;44529;47.464;19.014;2022-10-29T09:00:01;101406.87;;;11.84;100.00
58761;BME280;44529;47.464;19.014;2022-10-29T09:03:10;101404.41;;;11.87;100.00
58761;BME280;44529;47.464;19.014;2022-10-29T09:06:16;101410.63;;;11.88;100.00
58761;BME280;44529;47.464;19.014;2022-10-29T09:09:41;101401.44;;;11.84;100.00
58761;BME280;44529;47.464;19.014;2022-10-29T09:19:27;101410.50;;;11.98;100.00
58761;BME280;44529;47.464;19.014;2022-10-29T09:26:04;101409.59;;;12.03;100.00
58761;BME280;44529;47.464;19.014;2022-10-29T09:32:33;101403.75;;;12.14;100.00
58761;BME280;44529;47.464;19.014;2022-10-29T09:35:51;101402.56;;;12.02;100.00
58761;BME280;44529;47.464;19.014;2022-10-29T09:42:37;101409.28;;;12.04;100.00
58761;BME280;44529;47.464;19.014;2022-10-29T09:49:06;101405.66;;;12.14;100.00
58761;BME280;44529;47.464;19.014;2022-10-29T09:52:22;101395.47;;;12.25;100.00
58761;BME280;44529;47.464;19.014;2022-10-29T09:55:27;101383.00;;;12.24;100.00
58761;BME280;44529;47.464;19.014;2022-10-29T09:58:36;101379.78;;;12.22;100.00
58761;BME280;44529;47.464;19.014;2022-10-29T10:01:39;101386.06;;;12.17;100.00
58761;BME280;44529;47.464;19.014;2022-10-29T10:04:44;101380.81;;;12.07;100.00
58761;BME280;44529;47.464;19.014;2022-10-29T10:08:12;101380.94;;;12.15;100.00
58761;BME280;44529;47.464;19.014;2022-10-29T10:11:18;101380.56;;;12.22;100.00
58761;BME280;44529;47.464;19.014;2022-10-29T10:14:21;101382.13;;;12.28;100.00
58761;BME280;44529;47.464;19.014;2022-10-29T10:17:25;101386.66;;;12.33;100.00
58761;BME280;44529;47.464;19.014;2022-10-29T10:20:31;101381.59;;;12.26;100.00
58761;BME280;44529;47.464;19.014;2022-10-29T10:23:48;101375.16;;;12.22;100.00
58761;BME280;44529;47.464;19.014;2022-10-29T10:26:53;101376.56;;;12.19;100.00
58761;BME280;44529;47.464;19.014;2022-10-29T10:30:14;101365.63;;;12.25;100.00
58761;BME280;44529;47.464;19.014;2022-10-29T10:33:23;101371.88;;;12.25;100.00
58761;BME280;44529;47.464;19.014;2022-10-29T10:36:27;101363.19;;;12.23;100.00
58761;BME280;44529;47.464;19.014;2022-10-29T10:39:36;101368.19;;;12.16;100.00
58761;BME280;44529;47.464;19.014;2022-10-29T10:42:40;101367.09;;;12.17;100.00
58761;BME280;44529;47.464;19.014;2022-10-29T10:45:56;101365.72;;;12.19;100.00
58761;BME280;44529;47.464;19.014;2022-10-29T10:52:23;101352.72;;;12.16;100.00
58761;BME280;44529;47.464;19.014;2022-10-29T10:55:30;101343.59;;;12.12;100.00
58761;BME280;44529;47.464;19.014;2022-10-29T10:58:41;101339.69;;;12.18;100.00
58761;BME280;44529;47.464;19.014;2022-10-29T11:01:48;101346.22;;;12.17;100.00
58761;BME280;44529;47.464;19.014;2022-10-29T11:04:57;101343.41;;;12.23;100.00
58761;BME280;44529;47.464;19.014;2022-10-29T11:08:10;101341.66;;;12.32;100.00
58761;BME280;44529;47.464;19.014;2022-10-29T11:11:22;101343.66;;;12.26;100.00
58761;BME280;44529;47.464;19.014;2022-10-29T11:14:32;101336.16;;;12.37;100.00
58761;BME280;44529;47.464;19.014;2022-10-29T11:17:46;101325.50;;;12.40;100.00
58761;BME280;44529;47.464;19.014;2022-10-29T11:21:04;101327.53;;;12.48;100.00
58761;BME280;44529;47.464;19.014;2022-10-29T11:27:36;101320.63;;;12.56;100.00
58761;BME280;44529;47.464;19.014;2022-10-29T11:30:47;101318.13;;;12.60;100.00
58761;BME280;44529;47.464;19.014;2022-10-29T11:33:59;101317.72;;;12.66;100.00
58761;BME280;44529;47.464;19.014;2022-10-29T11:40:28;101308.19;;;12.69;100.00
58761;BME280;44529;47.464;19.014;2022-10-29T11:43:35;101311.59;;;12.74;100.00
58761;BME280;44529;47.464;19.014;2022-10-29T11:56:53;101297.63;;;12.67;100.00
58761;BME280;44529;47.464;19.014;2022-10-29T12:13:27;101290.00;;;12.69;100.00
58761;BME280;44529;47.464;19.014;2022-10-29T12:16:49;101290.28;;;12.68;100.00
58761;BME280;44529;47.464;19.014;2022-10-29T12:20:00;101284.59;;;12.69;100.00
58761;BME280;44529;47.464;19.014;2022-10-29T12:30:05;101268.50;;;12.73;100.00
58761;BME280;44529;47.464;19.014;2022-10-29T12:33:19;101279.16;;;12.83;100.00
58761;BME280;44529;47.464;19.014;2022-10-29T12:39:46;101260.03;;;12.74;100.00
58761;BME280;44529;47.464;19.014;2022-10-29T12:42:51;101259.75;;;12.76;100.00
58761;BME280;44529;47.464;19.014;2022-10-29T12:55:36;101241.25;;;12.78;100.00
58761;BME280;44529;47.464;19.014;2022-10-29T12:58:48;101235.44;;;12.71;100.00
58761;BME280;44529;47.464;19.014;2022-10-29T13:01:52;101231.00;;;12.75;100.00
58761;BME280;44529;47.464;19.014;2022-10-29T13:05:33;101233.81;;;12.84;100.00
58761;BME280;44529;47.464;19.014;2022-10-29T13:08:37;101234.31;;;12.86;100.00
58761;BME280;44529;47.464;19.014;2022-10-29T13:11:52;101229.38;;;12.88;100.00
58761;BME280;44529;47.464;19.014;2022-10-29T13:15:02;101223.94;;;12.88;100.00
58761;BME280;44529;47.464;19.014;2022-10-29T13:18:26;101222.47;;;12.82;100.00
58761;BME280;44529;47.464;19.014;2022-10-29T13:31:43;101233.31;;;12.82;100.00
58761;BME280;44529;47.464;19.014;2022-10-29T13:34:55;101229.19;;;12.84;100.00
58761;BME280;44529;47.464;19.014;2022-10-29T13:41:14;101237.75;;;12.78;100.00
58761;BME280;44529;47.464;19.014;2022-10-29T13:44:21;101227.19;;;12.76;100.00
58761;BME280;44529;47.464;19.014;2022-10-29T13:47:24;101227.06;;;12.81;100.00
58761;BME280;44529;47.464;19.014;2022-10-29T13:50:27;101221.94;;;12.80;100.00
58761;BME280;44529;47.464;19.014;2022-10-29T13:53:38;101224.47;;;12.76;100.00
58761;BME280;44529;47.464;19.014;2022-10-29T13:56:48;101216.13;;;12.72;100.00
58761;BME280;44529;47.464;19.014;2022-10-29T14:03:05;101209.28;;;12.75;100.00
58761;BME280;44529;47.464;19.014;2022-10-29T14:06:22;101213.91;;;12.74;100.00
58761;BME280;44529;47.464;19.014;2022-10-29T14:09:41;101216.63;;;12.74;100.00
58761;BME280;44529;47.464;19.014;2022-10-29T14:12:46;101207.19;;;12.72;100.00
58761;BME280;44529;47.464;19.014;2022-10-29T14:19:18;101194.50;;;12.67;100.00
58761;BME280;44529;47.464;19.014;2022-10-29T14:22:28;101200.75;;;12.68;100.00
58761;BME280;44529;47.464;19.014;2022-10-29T14:25:35;101207.78;;;12.69;100.00
58761;BME280;44529;47.464;19.014;2022-10-29T14:28:37;101222.75;;;12.66;100.00
58761;BME280;44529;47.464;19.014;2022-10-29T14:31:39;101215.81;;;12.60;100.00
58761;BME280;44529;47.464;19.014;2022-10-29T14:34:41;101216.84;;;12.64;100.00
58761;BME280;44529;47.464;19.014;2022-10-29T14:37:47;101215.50;;;12.62;100.00
58761;BME280;44529;47.464;19.014;2022-10-29T14:40:49;101219.84;;;12.63;100.00
58761;BME280;44529;47.464;19.014;2022-10-29T14:47:35;101212.00;;;12.61;100.00
58761;BME280;44529;47.464;19.014;2022-10-29T14:50:44;101206.16;;;12.54;100.00
58761;BME280;44529;47.464;19.014;2022-10-29T14:53:53;101199.03;;;12.58;100.00
58761;BME280;44529;47.464;19.014;2022-10-29T14:57:04;101210.91;;;12.62;100.00
58761;BME280;44529;47.464;19.014;2022-10-29T15:00:21;101213.81;;;12.66;100.00
58761;BME280;44529;47.464;19.014;2022-10-29T15:03:25;101208.78;;;12.59;100.00
58761;BME280;44529;47.464;19.014;2022-10-29T15:06:30;101212.22;;;12.51;100.00
58761;BME280;44529;47.464;19.014;2022-10-29T15:09:32;101208.97;;;12.49;100.00
58761;BME280;44529;47.464;19.014;2022-10-29T15:12:38;101202.47;;;12.50;100.00
58761;BME280;44529;47.464;19.014;2022-10-29T15:16:35;101208.69;;;12.51;100.00
58761;BME280;44529;47.464;19.014;2022-10-29T15:19:13;101208.47;;;12.47;100.00
58761;BME280;44529;47.464;19.014;2022-10-29T15:22:20;101191.41;;;12.46;100.00
58761;BME280;44529;47.464;19.014;2022-10-29T15:25:32;101194.13;;;12.46;100.00
58761;BME280;44529;47.464;19.014;2022-10-29T15:28:39;101189.56;;;12.42;100.00
58761;BME280;44529;47.464;19.014;2022-10-29T15:31:44;101177.66;;;12.43;100.00
58761;BME280;44529;47.464;19.014;2022-10-29T15:34:53;101172.31;;;12.38;100.00
58761;BME280;44529;47.464;19.014;2022-10-29T15:37:56;101173.63;;;12.40;100.00
58761;BME280;44529;47.464;19.014;2022-10-29T15:44:29;101179.84;;;12.41;100.00
58761;BME280;44529;47.464;19.014;2022-10-29T15:47:37;101185.25;;;12.41;100.00
58761;BME280;44529;47.464;19.014;2022-10-29T15:50:41;101188.88;;;12.36;100.00
58761;BME280;44529;47.464;19.014;2022-10-29T15:53:44;101192.19;;;12.33;100.00
58761;BME280;44529;47.464;19.014;2022-10-29T15:56:47;101194.69;;;12.30;100.00
58761;BME280;44529;47.464;19.014;2022-10-29T15:59:50;101183.56;;;12.31;100.00
58761;BME280;44529;47.464;19.014;2022-10-29T16:03:00;101183.84;;;12.30;100.00
58761;BME280;44529;47.464;19.014;2022-10-29T16:06:08;101204.62;;;12.34;100.00
58761;BME280;44529;47.464;19.014;2022-10-29T16:09:17;101217.91;;;12.36;100.00
58761;BME280;44529;47.464;19.014;2022-10-29T16:12:20;101208.06;;;12.40;100.00
58761;BME280;44529;47.464;19.014;2022-10-29T16:15:22;101209.66;;;12.41;100.00
58761;BME280;44529;47.464;19.014;2022-10-29T16:18:26;101201.62;;;12.36;100.00
58761;BME280;44529;47.464;19.014;2022-10-29T16:21:29;101203.75;;;12.39;100.00
58761;BME280;44529;47.464;19.014;2022-10-29T16:24:31;101199.72;;;12.36;100.00
58761;BME280;44529;47.464;19.014;2022-10-29T16:27:34;101200.53;;;12.37;100.00
58761;BME280;44529;47.464;19.014;2022-10-29T16:30:37;101202.72;;;12.35;100.00
58761;BME280;44529;47.464;19.014;2022-10-29T16:33:44;101200.94;;;12.30;100.00
58761;BME280;44529;47.464;19.014;2022-10-29T16:36:47;101203.03;;;12.33;100.00
58761;BME280;44529;47.464;19.014;2022-10-29T16:39:49;101193.50;;;12.36;100.00
58761;BME280;44529;47.464;19.014;2022-10-29T16:42:51;101184.75;;;12.39;100.00
58761;BME280;44529;47.464;19.014;2022-10-29T16:45:56;101178.03;;;12.36;100.00
58761;BME280;44529;47.464;19.014;2022-10-29T16:49:02;101169.59;;;12.38;100.00
58761;BME280;44529;47.464;19.014;2022-10-29T16:52:07;101176.31;;;12.40;100.00
58761;BME280;44529;47.464;19.014;2022-10-29T16:55:10;101180.94;;;12.40;100.00
58761;BME280;44529;47.464;19.014;2022-10-29T16:58:15;101174.41;;;12.41;100.00
58761;BME280;44529;47.464;19.014;2022-10-29T17:01:18;101179.84;;;12.41;100.00
58761;BME280;44529;47.464;19.014;2022-10-29T17:04:20;101178.22;;;12.40;100.00
58761;BME280;44529;47.464;19.014;2022-10-29T17:07:23;101173.91;;;12.39;100.00
58761;BME280;44529;47.464;19.014;2022-10-29T17:10:25;101172.22;;;12.43;100.00
58761;BME280;44529;47.464;19.014;2022-10-29T17:13:27;101165.16;;;12.42;100.00
58761;BME280;44529;47.464;19.014;2022-10-29T17:16:30;101170.59;;;12.42;100.00
58761;BME280;44529;47.464;19.014;2022-10-29T17:19:32;101174.00;;;12.34;100.00
58761;BME280;44529;47.464;19.014;2022-10-29T17:22:34;101181.25;;;12.38;100.00
58761;BME280;44529;47.464;19.014;2022-10-29T17:25:38;101194.09;;;12.33;100.00
58761;BME280;44529;47.464;19.014;2022-10-29T17:28:41;101189.25;;;12.30;100.00
58761;BME280;44529;47.464;19.014;2022-10-29T17:31:43;101171.50;;;12.37;100.00
58761;BME280;44529;47.464;19.014;2022-10-29T17:34:46;101159.88;;;12.37;100.00
58761;BME280;44529;47.464;19.014;2022-10-29T17:37:48;101159.25;;;12.40;100.00
58761;BME280;44529;47.464;19.014;2022-10-29T17:40:50;101162.97;;;12.44;100.00
58761;BME280;44529;47.464;19.014;2022-10-29T17:43:52;101166.50;;;12.44;100.00
58761;BME280;44529;47.464;19.014;2022-10-29T17:46:55;101162.19;;;12.43;100.00
58761;BME280;44529;47.464;19.014;2022-10-29T17:49:57;101156.53;;;12.40;100.00
58761;BME280;44529;47.464;19.014;2022-10-29T17:52:59;101164.66;;;12.40;100.00
58761;BME280;44529;47.464;19.014;2022-10-29T17:56:02;101161.66;;;12.41;100.00
58761;BME280;44529;47.464;19.014;2022-10-29T17:59:04;101178.53;;;12.38;100.00